Time;durP1;ratioP1;P1;durP2;ratioP2;P2;SDS_P1;SDS_P2;PMS_P1;PMS_P2;Temp;Humidity;BMP_temperature;BMP_pressure;BME280_temperature;BME280_humidity;BME280_pressure;Samples;Min_cycle;Max_cycle;Signal;HPM_P1;HPM_P2
2022/05/16 00:02:23;;;;;;;;;;;14.50;99.90;;;;;;5094256;28;20006;-87
2022/05/16 00:04:51;;;;;;;;;;;14.50;99.90;;;;;;5094864;28;20024;-86
2022/05/16 00:07:18;;;;;;;;;;;14.40;99.90;;;;;;5095108;28;19915;-88
2022/05/16 00:09:44;;;;;;;;;;;14.40;99.90;;;;;;5094187;28;19914;-89
2022/05/16 00:12:10;;;;;;;;;;;14.40;99.90;;;;;;5094490;28;19999;-88
2022/05/16 00:14:37;;;;;;;;;;;14.40;99.90;;;;;;5094364;28;19908;-90
2022/05/16 00:17:03;;;;;;;;;;;14.40;99.90;;;;;;5094621;28;19909;-89
2022/05/16 00:19:29;;;;;;;;;;;14.40;99.90;;;;;;5094381;28;19964;-90
2022/05/16 00:21:55;;;;;;;;;;;14.40;99.90;;;;;;5093666;28;20007;-91
2022/05/16 00:24:26;;;;;;;;;;;14.40;99.90;;;;;;5094512;28;19908;-88
2022/05/16 00:26:52;;;;;;;;;;;14.40;99.90;;;;;;5095126;28;19931;-91
2022/05/16 00:29:18;;;;;;;;;;;14.40;99.90;;;;;;5101202;28;19908;-91
2022/05/16 00:31:46;;;;;;;;;;;14.40;99.90;;;;;;5095021;28;19919;-92
2022/05/16 00:34:12;;;;;;;;;;;14.30;99.90;;;;;;5094418;28;19908;-91
2022/05/16 00:36:38;;;;;;;;;;;14.30;99.90;;;;;;5092647;28;19909;-89
2022/05/16 00:39:03;;;;;;;;;;;14.30;99.90;;;;;;5094157;28;20016;-90
2022/05/16 00:41:32;;;;;;;;;;;14.30;99.90;;;;;;5092391;28;20277;-90
2022/05/16 00:43:59;;;;;;;;;;;14.30;99.90;;;;;;5093243;28;19908;-89
2022/05/16 00:46:26;;;;;;;;;;;14.30;99.90;;;;;;5094319;28;19908;-89
2022/05/16 00:48:52;;;;;;;;;;;14.30;99.90;;;;;;5093437;28;20323;-91
2022/05/16 00:51:25;;;;;;;;;;;14.30;99.90;;;;;;5094694;28;19953;-89
2022/05/16 00:53:53;;;;;;;;;;;14.30;99.90;;;;;;5094507;28;20324;-89
2022/05/16 00:56:19;;;;;;;;;;;14.20;99.90;;;;;;5093191;28;19951;-90
2022/05/16 00:58:45;;;;;;;;;;;14.30;99.90;;;;;;5092729;28;19959;-90
2022/05/16 01:06:40;;;;;;;;;;;14.30;99.90;;;;;;5093840;28;19915;-89
2022/05/16 01:09:06;;;;;;;;;;;14.30;99.90;;;;;;5094512;28;19912;-90
2022/05/16 01:11:32;;;;;;;;;;;14.20;99.90;;;;;;5093857;28;19908;-88
2022/05/16 01:13:58;;;;;;;;;;;14.20;99.90;;;;;;5094319;28;19908;-91
2022/05/16 01:16:23;;;;;;;;;;;14.20;99.90;;;;;;5092966;28;19961;-87
2022/05/16 01:18:49;;;;;;;;;;;14.20;99.90;;;;;;5093883;28;19908;-89
2022/05/16 01:21:17;;;;;;;;;;;14.20;99.90;;;;;;5094007;28;20293;-88
2022/05/16 01:23:43;;;;;;;;;;;14.20;99.90;;;;;;5092166;28;19913;-87
2022/05/16 01:26:11;;;;;;;;;;;14.20;99.90;;;;;;5094456;28;19931;-89
2022/05/16 01:28:37;;;;;;;;;;;14.10;99.90;;;;;;5093501;28;19930;-89
2022/05/16 01:31:02;;;;;;;;;;;14.10;99.90;;;;;;5093949;28;20254;-87
2022/05/16 01:33:28;;;;;;;;;;;14.10;99.90;;;;;;5101630;28;19912;-89
2022/05/16 01:35:54;;;;;;;;;;;14.10;99.90;;;;;;5104747;28;20007;-90
2022/05/16 01:38:23;;;;;;;;;;;14.10;99.90;;;;;;5092732;28;19912;-87
2022/05/16 01:40:54;;;;;;;;;;;14.10;99.90;;;;;;5097033;28;19923;-89
2022/05/16 01:43:21;;;;;;;;;;;14.10;99.90;;;;;;5097113;28;19916;-85
2022/05/16 01:45:47;;;;;;;;;;;14.00;99.90;;;;;;5095194;28;19904;-85
2022/05/16 01:48:14;;;;;;;;;;;14.00;99.90;;;;;;5095991;28;19909;-85
2022/05/16 01:50:40;;;;;;;;;;;14.00;99.90;;;;;;5092382;28;19916;-86
2022/05/16 01:53:06;;;;;;;;;;;13.90;99.90;;;;;;5093444;28;19961;-86
2022/05/16 01:55:31;;;;;;;;;;;13.90;99.90;;;;;;5092980;28;20401;-87
2022/05/16 01:57:57;;;;;;;;;;;13.90;99.90;;;;;;5093457;28;19927;-85
2022/05/16 02:00:22;;;;;;;;;;;13.80;99.90;;;;;;5091785;28;19912;-86
2022/05/16 02:02:48;;;;;;;;;;;13.80;99.90;;;;;;5091452;28;19973;-85
2022/05/16 02:05:16;;;;;;;;;;;13.80;99.90;;;;;;5093224;28;19915;-87
2022/05/16 02:07:42;;;;;;;;;;;13.80;99.90;;;;;;5092548;28;19908;-82
2022/05/16 02:10:09;;;;;;;;;;;13.70;99.90;;;;;;5092948;28;19914;-82
2022/05/16 02:12:34;;;;;;;;;;;13.70;99.90;;;;;;5092617;28;19961;-84
2022/05/16 02:15:04;;;;;;;;;;;13.60;99.90;;;;;;5092215;28;19912;-85
2022/05/16 02:17:30;;;;;;;;;;;13.60;99.90;;;;;;5092429;28;20284;-79
2022/05/16 02:19:55;;;;;;;;;;;13.60;99.90;;;;;;5092963;28;19961;-84
2022/05/16 02:25:06;;;;;;;;;;;13.60;99.90;;;;;;5092868;28;19965;-84
2022/05/16 02:27:31;;;;;;;;;;;13.60;99.90;;;;;;5091142;28;20307;-79
2022/05/16 02:29:57;;;;;;;;;;;13.60;99.90;;;;;;5092635;28;19930;-83
2022/05/16 02:32:23;;;;;;;;;;;13.60;99.90;;;;;;5093109;28;20335;-83
2022/05/16 02:34:49;;;;;;;;;;;13.60;99.90;;;;;;5092369;28;19919;-84
2022/05/16 02:37:15;;;;;;;;;;;13.40;99.90;;;;;;5093193;28;20327;-84
2022/05/16 02:39:45;;;;;;;;;;;13.40;99.90;;;;;;5092323;28;19912;-83
2022/05/16 02:42:11;;;;;;;;;;;13.50;99.90;;;;;;5092935;28;19912;-84
2022/05/16 02:44:38;;;;;;;;;;;13.50;99.90;;;;;;5092736;28;20269;-83
2022/05/16 02:47:05;;;;;;;;;;;13.40;99.90;;;;;;5092857;28;20258;-83
2022/05/16 02:49:31;;;;;;;;;;;13.40;99.90;;;;;;5092670;28;20006;-76
2022/05/16 02:51:57;;;;;;;;;;;13.40;99.90;;;;;;5092792;28;20008;-81
2022/05/16 02:54:22;;;;;;;;;;;13.40;99.90;;;;;;5092491;28;20375;-83
2022/05/16 02:56:48;;;;;;;;;;;13.30;99.90;;;;;;5092202;28;20341;-83
2022/05/16 02:59:14;;;;;;;;;;;13.30;99.90;;;;;;5092677;28;19908;-83
2022/05/16 03:01:39;;;;;;;;;;;13.30;99.90;;;;;;5092221;28;20387;-83
2022/05/16 03:04:05;;;;;;;;;;;13.40;99.90;;;;;;5093092;28;19919;-85
2022/05/16 03:06:31;;;;;;;;;;;13.40;99.90;;;;;;5092770;28;19908;-82
2022/05/16 03:08:56;;;;;;;;;;;13.40;99.90;;;;;;5091963;28;19962;-83
2022/05/16 03:11:22;;;;;;;;;;;13.40;99.90;;;;;;5092658;28;19963;-83
2022/05/16 03:13:48;;;;;;;;;;;13.40;99.90;;;;;;5092129;28;20354;-83
2022/05/16 03:16:14;;;;;;;;;;;13.40;99.90;;;;;;5092416;28;19909;-83
2022/05/16 03:18:39;;;;;;;;;;;13.40;99.90;;;;;;5092036;28;19961;-82
2022/05/16 03:21:06;;;;;;;;;;;13.30;99.90;;;;;;5092229;28;20400;-82
2022/05/16 03:23:31;;;;;;;;;;;13.30;99.90;;;;;;5092492;28;20257;-83
2022/05/16 03:25:57;;;;;;;;;;;13.30;99.90;;;;;;5094464;28;19915;-83
2022/05/16 03:28:23;;;;;;;;;;;13.20;99.90;;;;;;5096369;28;19915;-83
2022/05/16 03:30:48;;;;;;;;;;;13.30;99.90;;;;;;5095478;28;20321;-83
2022/05/16 03:33:15;;;;;;;;;;;13.30;99.90;;;;;;5096070;28;19950;-82
2022/05/16 03:35:40;;;;;;;;;;;13.40;99.90;;;;;;5095746;28;20210;-81
2022/05/16 03:38:06;;;;;;;;;;;13.40;99.90;;;;;;5096263;28;19933;-83
2022/05/16 03:40:45;;;;;;;;;;;13.40;99.90;;;;;;5096081;28;20023;-83
2022/05/16 03:43:14;;;;;;;;;;;13.40;99.90;;;;;;5096046;28;19912;-83
2022/05/16 03:45:41;;;;;;;;;;;13.50;99.90;;;;;;5095202;28;19909;-83
2022/05/16 03:48:07;;;;;;;;;;;13.50;99.90;;;;;;5094659;28;19915;-82
2022/05/16 03:50:33;;;;;;;;;;;13.40;99.90;;;;;;5096283;28;20380;-83
2022/05/16 03:52:59;;;;;;;;;;;13.50;99.90;;;;;;5095195;28;19908;-83
2022/05/16 03:55:26;;;;;;;;;;;13.40;99.90;;;;;;5095816;28;19912;-83
2022/05/16 03:57:52;;;;;;;;;;;13.40;99.90;;;;;;5095217;28;19920;-83
2022/05/16 04:00:17;;;;;;;;;;;13.40;99.90;;;;;;5095189;28;20407;-84
2022/05/16 04:02:43;;;;;;;;;;;13.40;99.90;;;;;;5095218;28;19912;-83
2022/05/16 04:05:10;;;;;;;;;;;13.40;99.90;;;;;;5095719;28;20023;-84
2022/05/16 04:07:36;;;;;;;;;;;13.40;99.90;;;;;;5095504;28;19985;-80
2022/05/16 04:10:02;;;;;;;;;;;13.50;99.90;;;;;;5094878;28;19915;-83
2022/05/16 04:12:27;;;;;;;;;;;13.40;99.90;;;;;;5095507;28;19909;-83
2022/05/16 04:14:53;;;;;;;;;;;13.40;99.90;;;;;;5094946;28;19908;-83
2022/05/16 04:17:19;;;;;;;;;;;13.50;99.90;;;;;;5095488;28;19953;-84
2022/05/16 04:19:45;;;;;;;;;;;13.50;99.90;;;;;;5094788;28;19935;-83
2022/05/16 04:22:11;;;;;;;;;;;13.50;99.90;;;;;;5095203;28;19951;-83
2022/05/16 04:24:37;;;;;;;;;;;13.50;99.90;;;;;;5094962;28;20321;-78
2022/05/16 04:27:03;;;;;;;;;;;13.40;99.90;;;;;;5094713;28;19969;-83
2022/05/16 04:29:28;;;;;;;;;;;13.50;99.90;;;;;;5095463;28;19912;-84
2022/05/16 04:31:54;;;;;;;;;;;13.50;99.90;;;;;;5094500;28;20254;-82
2022/05/16 04:34:20;;;;;;;;;;;13.50;99.90;;;;;;5095155;28;20007;-81
2022/05/16 04:36:45;;;;;;;;;;;13.60;99.90;;;;;;5093675;28;19920;-82
2022/05/16 04:39:11;;;;;;;;;;;13.60;99.90;;;;;;5094920;28;20254;-82
2022/05/16 04:44:21;;;;;;;;;;;13.60;99.90;;;;;;5094959;28;19915;-83
2022/05/16 04:46:46;;;;;;;;;;;13.60;99.90;;;;;;5093976;28;19912;-83
2022/05/16 04:49:12;;;;;;;;;;;13.60;99.90;;;;;;5094930;28;19947;-83
2022/05/16 04:51:38;;;;;;;;;;;13.50;99.90;;;;;;5095072;28;19915;-83
2022/05/16 04:54:03;;;;;;;;;;;13.60;99.90;;;;;;5094053;28;20297;-83
2022/05/16 04:56:29;;;;;;;;;;;13.50;99.90;;;;;;5094252;28;19920;-83
2022/05/16 04:58:55;;;;;;;;;;;13.50;99.90;;;;;;5093790;28;19968;-83
2022/05/16 05:01:20;;;;;;;;;;;13.60;99.90;;;;;;5094313;28;19912;-84
2022/05/16 05:03:46;;;;;;;;;;;13.60;99.90;;;;;;5093914;28;19919;-84
2022/05/16 05:06:11;;;;;;;;;;;13.70;99.90;;;;;;5094150;28;19914;-84
2022/05/16 05:08:37;;;;;;;;;;;13.70;99.90;;;;;;5094427;28;19908;-83
2022/05/16 05:16:32;;;;;;;;;;;13.70;99.90;;;;;;5094424;28;19942;-84
2022/05/16 05:18:58;;;;;;;;;;;13.70;99.90;;;;;;5094042;28;20269;-86
2022/05/16 05:21:24;;;;;;;;;;;13.70;99.90;;;;;;5093817;28;19912;-87
2022/05/16 05:23:52;;;;;;;;;;;13.60;99.90;;;;;;5093346;28;20426;-85
2022/05/16 05:26:17;;;;;;;;;;;13.60;99.90;;;;;;5094097;28;19908;-85
2022/05/16 05:28:43;;;;;;;;;;;13.60;99.90;;;;;;5094024;28;20372;-80
2022/05/16 05:31:12;;;;;;;;;;;13.60;99.90;;;;;;5093892;28;19909;-84
2022/05/16 05:33:38;;;;;;;;;;;13.60;99.90;;;;;;5093813;28;19908;-84
2022/05/16 05:36:03;;;;;;;;;;;13.60;99.90;;;;;;5093398;28;19916;-84
2022/05/16 05:38:29;;;;;;;;;;;13.60;99.90;;;;;;5093802;28;19915;-84
2022/05/16 05:40:55;;;;;;;;;;;13.60;99.90;;;;;;5093383;28;19939;-84
2022/05/16 05:43:21;;;;;;;;;;;13.60;99.90;;;;;;5093607;28;20354;-85
2022/05/16 05:45:46;;;;;;;;;;;13.60;99.90;;;;;;5093164;28;19930;-84
2022/05/16 05:48:12;;;;;;;;;;;13.60;99.90;;;;;;5093619;28;20310;-84
2022/05/16 05:50:37;;;;;;;;;;;13.60;99.90;;;;;;5093302;28;19909;-84
2022/05/16 05:53:03;;;;;;;;;;;13.60;99.90;;;;;;5092988;28;20322;-84
2022/05/16 05:55:29;;;;;;;;;;;13.60;99.90;;;;;;5093466;28;20380;-85
2022/05/16 05:57:55;;;;;;;;;;;13.60;99.90;;;;;;5092905;28;20132;-84
2022/05/16 06:00:20;;;;;;;;;;;13.60;99.90;;;;;;5093422;28;19971;-85
2022/05/16 06:02:46;;;;;;;;;;;13.70;99.90;;;;;;5092875;28;20003;-79
2022/05/16 06:05:19;;;;;;;;;;;13.70;99.90;;;;;;5093684;28;19908;-84
2022/05/16 06:07:44;;;;;;;;;;;13.70;99.90;;;;;;5092852;28;20328;-80
2022/05/16 06:10:10;;;;;;;;;;;13.70;99.90;;;;;;5092963;28;19959;-85
2022/05/16 06:12:36;;;;;;;;;;;13.80;99.90;;;;;;5093142;28;19908;-85
2022/05/16 06:15:03;;;;;;;;;;;13.90;99.90;;;;;;5092397;28;19908;-85
2022/05/16 06:17:28;;;;;;;;;;;13.90;99.90;;;;;;5093259;28;20272;-85
2022/05/16 06:19:54;;;;;;;;;;;14.00;99.90;;;;;;5092303;28;19912;-84
2022/05/16 06:22:19;;;;;;;;;;;14.00;99.90;;;;;;5093120;28;19920;-85
2022/05/16 06:27:31;;;;;;;;;;;14.20;99.90;;;;;;5088503;28;19966;-86
2022/05/16 06:29:57;;;;;;;;;;;14.30;99.90;;;;;;5092106;28;20262;-85
2022/05/16 06:32:22;;;;;;;;;;;14.30;99.90;;;;;;5093204;28;19912;-86
2022/05/16 06:34:48;;;;;;;;;;;14.40;99.90;;;;;;5092284;28;19912;-81
2022/05/16 06:37:14;;;;;;;;;;;14.50;99.90;;;;;;5092544;28;19908;-85
2022/05/16 06:39:40;;;;;;;;;;;14.50;99.90;;;;;;5092399;28;19912;-85
2022/05/16 06:42:06;;;;;;;;;;;14.60;99.90;;;;;;5098725;28;19912;-85
2022/05/16 06:44:32;;;;;;;;;;;14.60;99.90;;;;;;5092814;28;19931;-84
2022/05/16 06:46:57;;;;;;;;;;;14.70;99.90;;;;;;5092177;28;20357;-83
2022/05/16 06:49:23;;;;;;;;;;;14.70;99.90;;;;;;5092791;28;19961;-83
2022/05/16 06:51:49;;;;;;;;;;;14.80;99.90;;;;;;5092329;28;19908;-78
2022/05/16 06:54:15;;;;;;;;;;;14.90;99.90;;;;;;5092461;28;19938;-83
2022/05/16 06:56:40;;;;;;;;;;;15.00;99.90;;;;;;5092287;28;20357;-83
2022/05/16 06:59:06;;;;;;;;;;;15.00;99.90;;;;;;5091890;28;19908;-83
2022/05/16 07:01:32;;;;;;;;;;;15.10;99.90;;;;;;5095946;28;20252;-83
2022/05/16 07:03:57;;;;;;;;;;;15.10;99.90;;;;;;5095929;28;19908;-83
2022/05/16 07:06:23;;;;;;;;;;;15.10;99.90;;;;;;5096629;28;19912;-83
2022/05/16 07:08:48;;;;;;;;;;;15.10;99.90;;;;;;5096396;28;19912;-79
2022/05/16 07:11:14;;;;;;;;;;;15.10;99.90;;;;;;5096002;28;19979;-82
2022/05/16 07:13:39;;;;;;;;;;;15.10;99.90;;;;;;5096671;28;19915;-83
2022/05/16 07:16:05;;;;;;;;;;;15.10;99.90;;;;;;5095847;28;20378;-83
2022/05/16 07:18:31;;;;;;;;;;;15.10;99.90;;;;;;5095962;28;19916;-84
2022/05/16 07:20:58;;;;;;;;;;;15.10;99.90;;;;;;5095329;28;19912;-84
2022/05/16 07:23:23;;;;;;;;;;;15.10;99.90;;;;;;5096139;28;19912;-84
2022/05/16 07:28:33;;;;;;;;;;;15.10;99.90;;;;;;5095690;28;19964;-83
2022/05/16 07:30:59;;;;;;;;;;;15.20;99.90;;;;;;5095639;28;19915;-84
2022/05/16 07:33:24;;;;;;;;;;;15.30;99.90;;;;;;5096311;28;19919;-83
2022/05/16 07:35:50;;;;;;;;;;;15.30;99.90;;;;;;5095664;28;19908;-79
2022/05/16 07:38:16;;;;;;;;;;;15.40;99.90;;;;;;5095669;28;20426;-83
2022/05/16 07:40:42;;;;;;;;;;;15.40;99.90;;;;;;5096147;28;19911;-83
2022/05/16 07:43:08;;;;;;;;;;;15.50;99.90;;;;;;5095395;28;19989;-84
2022/05/16 07:45:34;;;;;;;;;;;15.50;99.90;;;;;;5095677;28;19909;-84
2022/05/16 07:48:03;;;;;;;;;;;15.60;99.90;;;;;;5095293;28;19909;-84
2022/05/16 07:50:29;;;;;;;;;;;15.60;99.90;;;;;;5095965;28;19909;-84
2022/05/16 07:52:55;;;;;;;;;;;15.60;99.90;;;;;;5094207;28;19909;-84
2022/05/16 07:55:23;;;;;;;;;;;15.70;99.90;;;;;;5096216;28;19909;-85
2022/05/16 07:57:48;;;;;;;;;;;15.80;99.90;;;;;;5095376;28;19992;-85
2022/05/16 08:00:15;;;;;;;;;;;15.90;99.90;;;;;;5095019;28;20428;-84
2022/05/16 08:02:40;;;;;;;;;;;15.90;99.90;;;;;;5094582;28;19912;-84
2022/05/16 08:05:07;;;;;;;;;;;16.10;99.90;;;;;;5095306;28;20371;-89
2022/05/16 08:07:33;;;;;;;;;;;16.20;99.90;;;;;;5096551;28;19908;-89
2022/05/16 08:12:43;;;;;;;;;;;16.30;99.90;;;;;;5097777;28;19962;-83
2022/05/16 08:15:09;;;;;;;;;;;16.40;99.90;;;;;;5095042;28;19943;-84
2022/05/16 08:17:34;;;;;;;;;;;16.40;99.90;;;;;;5095318;28;19915;-84
2022/05/16 08:20:01;;;;;;;;;;;16.50;99.90;;;;;;5094740;28;19912;-83
2022/05/16 08:22:31;;;;;;;;;;;16.40;99.90;;;;;;5095306;28;20257;-83
2022/05/16 08:24:57;;;;;;;;;;;16.40;99.90;;;;;;5095031;28;19961;-83
2022/05/16 08:27:23;;;;;;;;;;;16.40;99.90;;;;;;5095051;28;19909;-83
2022/05/16 08:29:48;;;;;;;;;;;16.40;99.90;;;;;;5095373;28;20011;-83
2022/05/16 08:32:15;;;;;;;;;;;16.50;99.90;;;;;;5094754;28;19957;-83
2022/05/16 08:34:41;;;;;;;;;;;16.50;99.90;;;;;;5094982;28;19908;-84
2022/05/16 08:40:03;;;;;;;;;;;16.50;99.90;;;;;;5095065;28;19934;-83
2022/05/16 08:42:37;;;;;;;;;;;16.60;99.90;;;;;;5095672;28;19912;-84
2022/05/16 08:45:04;;;;;;;;;;;16.50;99.90;;;;;;5096291;28;19958;-84
2022/05/16 08:47:48;;;;;;;;;;;16.60;99.90;;;;;;5098355;28;19908;-83
2022/05/16 08:50:16;;;;;;;;;;;16.60;99.90;;;;;;5097748;28;19908;-82
2022/05/16 08:52:54;;;;;;;;;;;16.70;99.90;;;;;;5096396;28;19915;-82
2022/05/16 08:55:26;;;;;;;;;;;16.70;99.90;;;;;;5094583;28;20010;-82
2022/05/16 08:57:57;;;;;;;;;;;16.80;99.90;;;;;;5093468;28;20273;-81
2022/05/16 09:00:29;;;;;;;;;;;16.80;99.90;;;;;;5093395;28;19919;-81
2022/05/16 09:02:54;;;;;;;;;;;16.90;99.90;;;;;;5093244;28;19965;-79
2022/05/16 09:05:34;;;;;;;;;;;17.00;99.90;;;;;;5093550;28;19912;-82
2022/05/16 09:08:00;;;;;;;;;;;17.10;99.90;;;;;;5093433;28;19914;-82
2022/05/16 09:10:31;;;;;;;;;;;17.10;99.90;;;;;;5093120;28;19912;-83
2022/05/16 09:12:56;;;;;;;;;;;17.20;99.90;;;;;;5092576;28;19916;-81
2022/05/16 09:15:23;;;;;;;;;;;17.30;99.90;;;;;;5093730;28;20376;-80
2022/05/16 09:17:51;;;;;;;;;;;17.40;99.90;;;;;;5093506;28;20006;-84
2022/05/16 09:20:16;;;;;;;;;;;17.60;99.90;;;;;;5092581;28;19926;-82
2022/05/16 09:22:42;;;;;;;;;;;17.70;99.90;;;;;;5092946;28;19912;-78
2022/05/16 09:25:11;;;;;;;;;;;17.80;99.90;;;;;;5092461;28;19956;-83
2022/05/16 09:30:26;;;;;;;;;;;18.00;99.90;;;;;;5092893;28;20376;-82
2022/05/16 09:33:09;;;;;;;;;;;18.00;99.90;;;;;;5093365;28;19912;-83
2022/05/16 09:35:54;;;;;;;;;;;18.10;99.90;;;;;;5092691;28;20308;-81
2022/05/16 09:38:20;;;;;;;;;;;18.20;99.90;;;;;;5092459;28;20037;-83
2022/05/16 09:40:54;;;;;;;;;;;18.30;99.90;;;;;;5091380;28;20413;-83
2022/05/16 09:43:21;;;;;;;;;;;18.30;99.90;;;;;;5092564;28;19957;-83
2022/05/16 09:45:50;;;;;;;;;;;18.30;99.90;;;;;;5092392;28;20356;-82
2022/05/16 09:48:17;;;;;;;;;;;18.30;99.90;;;;;;5092326;28;20501;-83
2022/05/16 09:50:54;;;;;;;;;;;18.40;99.90;;;;;;5092595;28;20336;-84
2022/05/16 09:53:27;;;;;;;;;;;18.40;99.90;;;;;;5092523;28;19908;-83
2022/05/16 09:55:54;;;;;;;;;;;18.30;99.90;;;;;;5092318;28;19935;-83
2022/05/16 09:58:22;;;;;;;;;;;18.30;99.90;;;;;;5091786;28;19928;-83
2022/05/16 10:00:54;;;;;;;;;;;18.30;99.90;;;;;;5092173;28;19916;-83
2022/05/16 10:03:22;;;;;;;;;;;18.30;99.90;;;;;;5092107;28;20891;-80
2022/05/16 10:05:50;;;;;;;;;;;18.30;99.90;;;;;;5092294;28;19908;-82
2022/05/16 10:08:51;;;;;;;;;;;18.30;99.90;;;;;;5091804;28;19948;-83
2022/05/16 10:11:22;;;;;;;;;;;18.30;99.90;;;;;;5069285;28;19916;-82
2022/05/16 10:13:48;;;;;;;;;;;18.40;99.90;;;;;;5088315;28;19909;-83
2022/05/16 10:16:14;;;;;;;;;;;18.40;99.90;;;;;;5091810;28;19908;-83
2022/05/16 10:18:51;;;;;;;;;;;18.30;99.90;;;;;;5092329;28;19954;-83
2022/05/16 10:21:26;;;;;;;;;;;18.20;99.90;;;;;;5091675;28;19912;-83
2022/05/16 10:23:51;;;;;;;;;;;18.20;99.90;;;;;;5092642;28;19923;-83
2022/05/16 10:26:22;;;;;;;;;;;18.20;99.90;;;;;;5091547;28;19909;-83
2022/05/16 10:28:51;;;;;;;;;;;18.20;99.90;;;;;;5092430;28;19912;-83
2022/05/16 10:34:09;;;;;;;;;;;18.30;99.90;;;;;;5090893;28;19970;-83
2022/05/16 10:36:35;;;;;;;;;;;18.30;99.90;;;;;;5091597;28;19915;-84
2022/05/16 10:39:03;;;;;;;;;;;18.40;99.90;;;;;;5091575;28;19915;-83
2022/05/16 10:41:48;;;;;;;;;;;18.60;99.90;;;;;;5091861;28;20384;-83
2022/05/16 10:44:22;;;;;;;;;;;18.80;99.90;;;;;;5090813;28;19912;-83
2022/05/16 10:46:52;;;;;;;;;;;19.00;99.90;;;;;;5091632;28;20397;-84
2022/05/16 10:49:21;;;;;;;;;;;19.30;99.90;;;;;;5091704;28;19940;-83
2022/05/16 10:51:55;;;;;;;;;;;19.60;99.90;;;;;;5091765;28;20349;-83
2022/05/16 10:54:22;;;;;;;;;;;19.90;99.90;;;;;;5090753;28;19908;-83
2022/05/16 10:57:13;;;;;;;;;;;19.90;99.90;;;;;;5091451;28;19924;-83
2022/05/16 10:59:42;;;;;;;;;;;19.90;99.90;;;;;;5088328;28;19943;-83
2022/05/16 11:02:31;;;;;;;;;;;19.70;99.90;;;;;;5091252;28;19919;-83
2022/05/16 11:05:15;;;;;;;;;;;19.60;99.90;;;;;;5091511;28;20253;-79
2022/05/16 11:07:50;;;;;;;;;;;19.40;99.90;;;;;;5091465;28;20438;-81
2022/05/16 11:10:25;;;;;;;;;;;19.20;99.90;;;;;;5091178;28;19912;-81
2022/05/16 11:13:00;;;;;;;;;;;19.10;99.90;;;;;;5091575;28;19928;-80
2022/05/16 11:15:34;;;;;;;;;;;19.10;99.90;;;;;;5091903;28;19912;-80
2022/05/16 11:18:00;;;;;;;;;;;19.20;99.90;;;;;;5090808;28;20396;-81
2022/05/16 11:20:42;;;;;;;;;;;19.50;99.90;;;;;;5091289;28;19916;-81
2022/05/16 11:23:17;;;;;;;;;;;19.80;99.90;;;;;;5091047;28;19912;-82
2022/05/16 11:25:52;;;;;;;;;;;20.00;99.90;;;;;;5090236;28;19954;-81
2022/05/16 11:28:33;;;;;;;;;;;20.20;99.90;;;;;;5089740;28;20053;-82
2022/05/16 11:31:09;;;;;;;;;;;20.20;99.90;;;;;;5090990;28;19908;-80
2022/05/16 11:33:34;;;;;;;;;;;20.40;99.90;;;;;;5091508;28;19953;-81
2022/05/16 11:36:17;;;;;;;;;;;20.60;99.90;;;;;;5091068;28;20003;-81
2022/05/16 11:38:45;;;;;;;;;;;20.80;99.90;;;;;;5091358;28;19962;-80
2022/05/16 11:41:16;;;;;;;;;;;20.90;99.90;;;;;;5090319;28;19912;-82
2022/05/16 11:43:46;;;;;;;;;;;20.80;99.90;;;;;;5091212;28;19916;-83
2022/05/16 11:46:23;;;;;;;;;;;20.80;99.90;;;;;;5090723;28;19915;-82
2022/05/16 11:49:04;;;;;;;;;;;20.80;99.90;;;;;;5094925;28;20357;-80
2022/05/16 11:51:29;;;;;;;;;;;21.00;99.90;;;;;;5095123;28;19943;-79
2022/05/16 11:53:58;;;;;;;;;;;21.00;99.90;;;;;;5094930;28;20001;-80
2022/05/16 12:02:11;;;;;;;;;;;20.90;99.90;;;;;;5093493;28;20391;-81
2022/05/16 12:04:40;;;;;;;;;;;20.80;99.90;;;;;;5096035;28;20353;-82
2022/05/16 12:07:12;;;;;;;;;;;20.70;99.90;;;;;;5094307;28;19912;-81
2022/05/16 12:09:52;;;;;;;;;;;20.50;99.90;;;;;;5093148;28;19951;-79
2022/05/16 12:12:29;;;;;;;;;;;20.50;99.90;;;;;;5080818;28;20015;-81
2022/05/16 12:15:11;;;;;;;;;;;20.30;99.90;;;;;;5095645;28;20111;-81
2022/05/16 12:17:38;;;;;;;;;;;20.50;99.90;;;;;;5093961;28;19908;-81
2022/05/16 12:20:10;;;;;;;;;;;20.40;99.90;;;;;;5094381;28;19916;-82
2022/05/16 12:22:35;;;;;;;;;;;20.30;99.90;;;;;;5095004;28;19918;-82
2022/05/16 12:25:03;;;;;;;;;;;20.10;99.90;;;;;;5093983;28;20399;-78
2022/05/16 12:27:30;;;;;;;;;;;20.00;99.90;;;;;;5094862;28;20013;-82
2022/05/16 12:29:58;;;;;;;;;;;19.80;99.90;;;;;;5095181;28;19918;-82
2022/05/16 12:32:29;;;;;;;;;;;19.60;99.90;;;;;;5094078;28;19912;-82
2022/05/16 12:35:03;;;;;;;;;;;19.60;99.90;;;;;;5092987;28;20004;-82
2022/05/16 12:37:28;;;;;;;;;;;19.30;99.90;;;;;;5093831;28;19930;-82
2022/05/16 12:40:16;;;;;;;;;;;19.10;99.90;;;;;;5092754;28;20425;-82
2022/05/16 12:42:50;;;;;;;;;;;19.00;99.90;;;;;;5094496;28;19919;-79
2022/05/16 12:45:25;;;;;;;;;;;18.90;99.90;;;;;;5094146;28;20270;-81
2022/05/16 12:48:00;;;;;;;;;;;18.90;99.90;;;;;;5094318;28;19955;-80
2022/05/16 12:50:40;;;;;;;;;;;19.10;99.90;;;;;;5092893;28;19912;-82
2022/05/16 12:53:24;;;;;;;;;;;19.20;99.90;;;;;;5083371;28;19919;-81
2022/05/16 12:56:01;;;;;;;;;;;19.30;99.90;;;;;;5093699;28;19935;-82
2022/05/16 12:58:34;;;;;;;;;;;19.40;99.90;;;;;;5092896;28;19920;-82
2022/05/16 13:01:00;;;;;;;;;;;19.60;99.90;;;;;;5094220;28;20023;-82
2022/05/16 13:03:28;;;;;;;;;;;19.80;99.90;;;;;;5093449;28;19939;-83
2022/05/16 13:05:58;;;;;;;;;;;19.90;99.90;;;;;;5094278;28;20381;-82
2022/05/16 13:08:28;;;;;;;;;;;19.90;99.90;;;;;;5093520;28;19914;-82
2022/05/16 13:10:59;;;;;;;;;;;19.80;99.90;;;;;;5094114;28;20311;-82
2022/05/16 13:13:24;;;;;;;;;;;19.90;99.90;;;;;;5093311;28;20344;-82
2022/05/16 13:15:53;;;;;;;;;;;20.00;99.90;;;;;;5094130;28;19943;-82
2022/05/16 13:18:23;;;;;;;;;;;20.20;99.90;;;;;;5093227;28;20343;-82
2022/05/16 13:20:50;;;;;;;;;;;20.40;99.90;;;;;;5093808;28;19923;-82
2022/05/16 13:23:15;;;;;;;;;;;20.50;99.90;;;;;;5093529;28;19923;-82
2022/05/16 13:31:09;;;;;;;;;;;20.40;99.90;;;;;;5093189;28;19915;-82
2022/05/16 13:33:36;;;;;;;;;;;20.50;99.90;;;;;;5093574;28;19908;-82
2022/05/16 13:36:18;;;;;;;;;;;20.60;99.90;;;;;;5093839;28;19908;-83
2022/05/16 13:38:46;;;;;;;;;;;20.70;99.90;;;;;;5093241;28;20369;-83
2022/05/16 13:41:12;;;;;;;;;;;20.90;99.90;;;;;;5092853;28;20388;-82
2022/05/16 13:43:38;;;;;;;;;;;21.10;99.90;;;;;;5093710;28;19913;-82
2022/05/16 13:46:05;;;;;;;;;;;21.20;99.90;;;;;;5093161;28;19908;-79
2022/05/16 13:48:31;;;;;;;;;;;21.30;99.90;;;;;;5092952;28;19908;-83
2022/05/16 13:50:58;;;;;;;;;;;21.30;99.90;;;;;;5093147;28;20281;-83
2022/05/16 13:53:26;;;;;;;;;;;21.10;99.90;;;;;;5092713;28;19915;-82
2022/05/16 13:55:52;;;;;;;;;;;21.10;99.90;;;;;;5093676;28;19908;-82
2022/05/16 13:58:18;;;;;;;;;;;21.10;99.90;;;;;;5091380;28;19920;-83
2022/05/16 14:00:45;;;;;;;;;;;21.10;99.90;;;;;;5092818;28;20441;-82
2022/05/16 14:03:23;;;;;;;;;;;21.10;99.90;;;;;;5107261;28;19919;-81
2022/05/16 14:05:48;;;;;;;;;;;21.10;99.90;;;;;;5092322;28;19912;-81
2022/05/16 14:08:21;;;;;;;;;;;21.20;99.90;;;;;;5092469;28;19977;-82
2022/05/16 14:10:48;;;;;;;;;;;21.40;99.90;;;;;;5093219;28;19908;-82
2022/05/16 14:13:15;;;;;;;;;;;21.50;99.90;;;;;;5090827;28;19908;-81
2022/05/16 14:15:46;;;;;;;;;;;21.60;99.90;;;;;;5092935;28;19908;-82
2022/05/16 14:18:12;;;;;;;;;;;21.50;99.90;;;;;;5091351;28;19958;-82
2022/05/16 14:20:40;;;;;;;;;;;21.40;99.90;;;;;;5092644;28;20315;-81
2022/05/16 14:23:13;;;;;;;;;;;21.50;99.90;;;;;;5092363;28;19938;-77
2022/05/16 14:25:40;;;;;;;;;;;21.60;99.90;;;;;;5092641;28;19909;-82
2022/05/16 14:28:24;;;;;;;;;;;21.70;99.90;;;;;;5093537;28;19912;-81
2022/05/16 14:31:00;;;;;;;;;;;21.60;99.90;;;;;;5093117;28;19912;-82
2022/05/16 14:33:34;;;;;;;;;;;21.50;99.90;;;;;;5092400;28;19974;-81
2022/05/16 14:36:05;;;;;;;;;;;21.40;99.90;;;;;;5092704;28;19977;-82
2022/05/16 14:38:56;;;;;;;;;;;21.50;99.90;;;;;;5091391;28;19912;-82
2022/05/16 14:41:24;;;;;;;;;;;21.50;99.90;;;;;;5089857;28;20015;-82
2022/05/16 14:44:00;;;;;;;;;;;21.50;99.90;;;;;;5092698;28;20265;-82
2022/05/16 14:46:43;;;;;;;;;;;21.80;99.90;;;;;;5091991;28;19916;-82
2022/05/16 14:49:12;;;;;;;;;;;22.00;99.90;;;;;;5091724;28;19915;-78
2022/05/16 14:51:39;;;;;;;;;;;22.20;99.90;;;;;;5092790;28;19915;-81
2022/05/16 14:54:22;;;;;;;;;;;22.40;99.90;;;;;;5092592;28;19908;-82
2022/05/16 14:56:48;;;;;;;;;;;22.60;99.90;;;;;;5092497;28;20007;-82
2022/05/16 14:59:14;;;;;;;;;;;22.90;99.90;;;;;;5092228;28;20027;-81
2022/05/16 15:04:24;;;;;;;;;;;23.40;99.90;;;;;;5091473;28;19919;-80
2022/05/16 15:06:49;;;;;;;;;;;23.30;99.90;;;;;;5091422;28;19908;-82
2022/05/16 15:09:17;;;;;;;;;;;23.40;99.90;;;;;;5092079;28;19912;-82
2022/05/16 15:11:53;;;;;;;;;;;23.50;99.90;;;;;;5092097;28;19915;-81